sensor_id;sensor_type;location;lat;lon;timestamp;P1;durP1;ratioP1;P2;durP2;ratioP2
2313;SDS011;42279;51.388;7.000;2023-07-24T00:00:57;5.27;;;5.07;;
2313;SDS011;42279;51.388;7.000;2023-07-24T00:03:23;4.27;;;4.07;;
2313;SDS011;42279;51.388;7.000;2023-07-24T00:05:49;5.37;;;5.13;;
2313;SDS011;42279;51.388;7.000;2023-07-24T00:08:15;4.97;;;4.77;;
2313;SDS011;42279;51.388;7.000;2023-07-24T00:10:41;4.83;;;4.53;;
2313;SDS011;42279;51.388;7.000;2023-07-24T00:13:07;4.67;;;4.40;;
2313;SDS011;42279;51.388;7.000;2023-07-24T00:15:33;5.97;;;5.57;;
2313;SDS011;42279;51.388;7.000;2023-07-24T00:17:59;5.33;;;5.00;;
2313;SDS011;42279;51.388;7.000;2023-07-24T00:20:25;4.67;;;4.30;;
2313;SDS011;42279;51.388;7.000;2023-07-24T00:22:51;4.67;;;4.57;;
2313;SDS011;42279;51.388;7.000;2023-07-24T00:25:17;5.23;;;4.97;;
2313;SDS011;42279;51.388;7.000;2023-07-24T00:27:43;7.83;;;4.60;;
2313;SDS011;42279;51.388;7.000;2023-07-24T00:30:09;5.03;;;4.73;;
2313;SDS011;42279;51.388;7.000;2023-07-24T00:32:36;4.97;;;4.67;;
2313;SDS011;42279;51.388;7.000;2023-07-24T00:35:02;4.80;;;4.60;;
2313;SDS011;42279;51.388;7.000;2023-07-24T00:37:28;5.20;;;5.00;;
2313;SDS011;42279;51.388;7.000;2023-07-24T00:39:54;5.07;;;4.70;;
2313;SDS011;42279;51.388;7.000;2023-07-24T00:42:20;5.63;;;4.60;;
2313;SDS011;42279;51.388;7.000;2023-07-24T00:44:46;4.93;;;4.63;;
2313;SDS011;42279;51.388;7.000;2023-07-24T00:47:12;15.50;;;4.87;;
2313;SDS011;42279;51.388;7.000;2023-07-24T00:49:38;5.70;;;5.37;;
2313;SDS011;42279;51.388;7.000;2023-07-24T00:52:04;4.90;;;4.63;;
2313;SDS011;42279;51.388;7.000;2023-07-24T00:54:30;5.40;;;5.10;;
2313;SDS011;42279;51.388;7.000;2023-07-24T00:56:58;5.13;;;4.83;;
2313;SDS011;42279;51.388;7.000;2023-07-24T00:59:24;10.90;;;5.80;;
2313;SDS011;42279;51.388;7.000;2023-07-24T01:01:50;7.10;;;4.70;;
2313;SDS011;42279;51.388;7.000;2023-07-24T01:04:16;5.10;;;4.77;;
2313;SDS011;42279;51.388;7.000;2023-07-24T01:06:42;5.30;;;4.77;;
2313;SDS011;42279;51.388;7.000;2023-07-24T01:09:08;4.70;;;4.50;;
2313;SDS011;42279;51.388;7.000;2023-07-24T01:14:04;4.70;;;4.40;;
2313;SDS011;42279;51.388;7.000;2023-07-24T01:16:38;6.73;;;4.70;;
2313;SDS011;42279;51.388;7.000;2023-07-24T01:19:11;4.67;;;4.37;;
2313;SDS011;42279;51.388;7.000;2023-07-24T01:22:12;4.40;;;4.10;;
2313;SDS011;42279;51.388;7.000;2023-07-24T01:24:33;4.87;;;4.50;;
2313;SDS011;42279;51.388;7.000;2023-07-24T01:27:00;4.33;;;4.13;;
2313;SDS011;42279;51.388;7.000;2023-07-24T01:29:26;4.70;;;4.40;;
2313;SDS011;42279;51.388;7.000;2023-07-24T01:31:52;3.60;;;3.50;;
2313;SDS011;42279;51.388;7.000;2023-07-24T01:34:18;5.00;;;4.23;;
2313;SDS011;42279;51.388;7.000;2023-07-24T01:36:44;4.30;;;4.20;;
2313;SDS011;42279;51.388;7.000;2023-07-24T01:39:10;3.70;;;3.40;;
2313;SDS011;42279;51.388;7.000;2023-07-24T01:41:37;3.97;;;3.87;;
2313;SDS011;42279;51.388;7.000;2023-07-24T01:44:03;3.77;;;3.57;;
2313;SDS011;42279;51.388;7.000;2023-07-24T01:46:30;3.67;;;3.53;;
2313;SDS011;42279;51.388;7.000;2023-07-24T01:48:56;4.83;;;4.43;;
2313;SDS011;42279;51.388;7.000;2023-07-24T01:51:22;4.27;;;4.13;;
2313;SDS011;42279;51.388;7.000;2023-07-24T01:53:48;3.77;;;3.67;;
2313;SDS011;42279;51.388;7.000;2023-07-24T01:56:14;4.73;;;4.53;;
2313;SDS011;42279;51.388;7.000;2023-07-24T01:58:40;4.40;;;4.20;;
2313;SDS011;42279;51.388;7.000;2023-07-24T02:01:06;4.83;;;4.50;;
2313;SDS011;42279;51.388;7.000;2023-07-24T02:03:32;5.80;;;5.53;;
2313;SDS011;42279;51.388;7.000;2023-07-24T02:05:58;5.10;;;4.90;;
2313;SDS011;42279;51.388;7.000;2023-07-24T02:08:24;4.83;;;4.73;;
2313;SDS011;42279;51.388;7.000;2023-07-24T02:10:50;5.57;;;5.17;;
2313;SDS011;42279;51.388;7.000;2023-07-24T02:13:16;5.30;;;4.80;;
2313;SDS011;42279;51.388;7.000;2023-07-24T02:15:42;5.03;;;4.77;;
2313;SDS011;42279;51.388;7.000;2023-07-24T02:18:08;4.53;;;4.33;;
2313;SDS011;42279;51.388;7.000;2023-07-24T02:20:34;5.30;;;5.00;;
2313;SDS011;42279;51.388;7.000;2023-07-24T02:23:00;4.23;;;4.13;;
2313;SDS011;42279;51.388;7.000;2023-07-24T02:25:26;5.10;;;4.70;;
2313;SDS011;42279;51.388;7.000;2023-07-24T02:27:52;5.77;;;5.57;;
2313;SDS011;42279;51.388;7.000;2023-07-24T02:30:18;5.10;;;5.00;;
2313;SDS011;42279;51.388;7.000;2023-07-24T02:32:44;9.83;;;4.87;;
2313;SDS011;42279;51.388;7.000;2023-07-24T02:35:10;5.17;;;4.87;;
2313;SDS011;42279;51.388;7.000;2023-07-24T02:37:36;5.17;;;4.73;;
2313;SDS011;42279;51.388;7.000;2023-07-24T02:40:02;5.07;;;4.97;;
2313;SDS011;42279;51.388;7.000;2023-07-24T02:42:28;5.03;;;4.73;;
2313;SDS011;42279;51.388;7.000;2023-07-24T02:44:54;5.60;;;5.30;;
2313;SDS011;42279;51.388;7.000;2023-07-24T02:47:20;5.23;;;4.37;;
2313;SDS011;42279;51.388;7.000;2023-07-24T02:49:49;4.70;;;4.50;;
2313;SDS011;42279;51.388;7.000;2023-07-24T02:52:15;8.37;;;5.23;;
2313;SDS011;42279;51.388;7.000;2023-07-24T02:54:41;5.97;;;5.37;;
2313;SDS011;42279;51.388;7.000;2023-07-24T02:57:07;5.37;;;4.87;;
2313;SDS011;42279;51.388;7.000;2023-07-24T02:59:33;4.73;;;4.50;;
2313;SDS011;42279;51.388;7.000;2023-07-24T03:02:00;5.40;;;5.00;;
2313;SDS011;42279;51.388;7.000;2023-07-24T03:04:26;6.20;;;5.73;;
2313;SDS011;42279;51.388;7.000;2023-07-24T03:06:52;5.27;;;5.00;;
2313;SDS011;42279;51.388;7.000;2023-07-24T03:09:18;6.00;;;5.53;;
2313;SDS011;42279;51.388;7.000;2023-07-24T03:11:44;5.53;;;5.17;;
2313;SDS011;42279;51.388;7.000;2023-07-24T03:14:10;5.90;;;5.50;;
2313;SDS011;42279;51.388;7.000;2023-07-24T03:16:36;6.87;;;6.23;;
2313;SDS011;42279;51.388;7.000;2023-07-24T03:19:02;6.40;;;6.00;;
2313;SDS011;42279;51.388;7.000;2023-07-24T03:21:28;8.20;;;7.60;;
2313;SDS011;42279;51.388;7.000;2023-07-24T03:23:54;6.07;;;5.60;;
2313;SDS011;42279;51.388;7.000;2023-07-24T03:26:20;6.73;;;6.20;;
2313;SDS011;42279;51.388;7.000;2023-07-24T03:28:46;6.30;;;5.90;;
2313;SDS011;42279;51.388;7.000;2023-07-24T03:31:12;6.73;;;6.27;;
2313;SDS011;42279;51.388;7.000;2023-07-24T03:33:38;7.17;;;6.57;;
2313;SDS011;42279;51.388;7.000;2023-07-24T03:36:04;7.37;;;6.67;;
2313;SDS011;42279;51.388;7.000;2023-07-24T03:38:30;5.20;;;5.10;;
2313;SDS011;42279;51.388;7.000;2023-07-24T03:40:56;6.33;;;5.50;;
2313;SDS011;42279;51.388;7.000;2023-07-24T03:43:22;8.13;;;7.33;;
2313;SDS011;42279;51.388;7.000;2023-07-24T03:45:48;6.27;;;5.97;;
2313;SDS011;42279;51.388;7.000;2023-07-24T03:48:14;5.93;;;5.63;;
2313;SDS011;42279;51.388;7.000;2023-07-24T03:50:40;7.00;;;6.50;;
2313;SDS011;42279;51.388;7.000;2023-07-24T03:53:06;6.73;;;6.10;;
2313;SDS011;42279;51.388;7.000;2023-07-24T03:55:32;5.73;;;5.47;;
2313;SDS011;42279;51.388;7.000;2023-07-24T03:57:58;6.33;;;5.83;;
2313;SDS011;42279;51.388;7.000;2023-07-24T04:00:24;6.63;;;6.03;;
2313;SDS011;42279;51.388;7.000;2023-07-24T04:02:50;6.50;;;6.10;;
2313;SDS011;42279;51.388;7.000;2023-07-24T04:05:16;6.87;;;6.27;;
2313;SDS011;42279;51.388;7.000;2023-07-24T04:07:42;6.43;;;6.00;;
2313;SDS011;42279;51.388;7.000;2023-07-24T04:10:08;6.37;;;6.07;;
2313;SDS011;42279;51.388;7.000;2023-07-24T04:12:34;6.83;;;6.43;;
2313;SDS011;42279;51.388;7.000;2023-07-24T04:15:00;6.20;;;5.90;;
2313;SDS011;42279;51.388;7.000;2023-07-24T04:17:26;17.30;;;15.60;;
2313;SDS011;42279;51.388;7.000;2023-07-24T04:19:52;8.10;;;7.50;;
2313;SDS011;42279;51.388;7.000;2023-07-24T04:22:18;5.73;;;5.43;;
2313;SDS011;42279;51.388;7.000;2023-07-24T04:24:44;6.17;;;5.77;;
2313;SDS011;42279;51.388;7.000;2023-07-24T04:27:10;6.33;;;5.83;;
2313;SDS011;42279;51.388;7.000;2023-07-24T04:29:36;6.87;;;6.57;;
2313;SDS011;42279;51.388;7.000;2023-07-24T04:32:02;6.40;;;6.00;;
2313;SDS011;42279;51.388;7.000;2023-07-24T04:34:28;7.00;;;6.40;;
2313;SDS011;42279;51.388;7.000;2023-07-24T04:36:54;7.30;;;6.77;;
2313;SDS011;42279;51.388;7.000;2023-07-24T04:39:20;7.17;;;6.43;;
2313;SDS011;42279;51.388;7.000;2023-07-24T04:41:46;9.03;;;6.87;;
2313;SDS011;42279;51.388;7.000;2023-07-24T04:44:12;7.50;;;6.87;;
2313;SDS011;42279;51.388;7.000;2023-07-24T04:46:38;6.80;;;6.20;;
2313;SDS011;42279;51.388;7.000;2023-07-24T04:49:04;5.90;;;5.50;;
2313;SDS011;42279;51.388;7.000;2023-07-24T04:51:30;6.37;;;6.07;;
2313;SDS011;42279;51.388;7.000;2023-07-24T04:53:55;6.33;;;5.97;;
2313;SDS011;42279;51.388;7.000;2023-07-24T04:56:21;7.13;;;6.50;;
2313;SDS011;42279;51.388;7.000;2023-07-24T04:58:48;6.43;;;6.10;;
2313;SDS011;42279;51.388;7.000;2023-07-24T05:01:14;7.17;;;6.50;;
2313;SDS011;42279;51.388;7.000;2023-07-24T05:03:40;6.27;;;5.90;;
2313;SDS011;42279;51.388;7.000;2023-07-24T05:06:06;6.67;;;6.10;;
2313;SDS011;42279;51.388;7.000;2023-07-24T05:08:32;6.63;;;6.23;;
2313;SDS011;42279;51.388;7.000;2023-07-24T05:10:58;6.43;;;6.03;;
2313;SDS011;42279;51.388;7.000;2023-07-24T05:13:25;6.50;;;6.00;;
2313;SDS011;42279;51.388;7.000;2023-07-24T05:15:51;7.37;;;6.73;;
2313;SDS011;42279;51.388;7.000;2023-07-24T05:18:17;7.23;;;6.70;;
2313;SDS011;42279;51.388;7.000;2023-07-24T05:20:46;6.90;;;6.50;;
2313;SDS011;42279;51.388;7.000;2023-07-24T05:23:13;7.00;;;6.60;;
2313;SDS011;42279;51.388;7.000;2023-07-24T05:25:39;7.30;;;6.80;;
2313;SDS011;42279;51.388;7.000;2023-07-24T05:28:05;5.20;;;4.80;;
2313;SDS011;42279;51.388;7.000;2023-07-24T05:30:30;6.87;;;6.43;;
2313;SDS011;42279;51.388;7.000;2023-07-24T05:32:56;7.17;;;6.70;;
2313;SDS011;42279;51.388;7.000;2023-07-24T05:35:22;7.17;;;6.50;;
2313;SDS011;42279;51.388;7.000;2023-07-24T05:37:51;6.77;;;5.93;;
2313;SDS011;42279;51.388;7.000;2023-07-24T05:40:17;6.87;;;6.50;;
2313;SDS011;42279;51.388;7.000;2023-07-24T05:42:43;7.67;;;7.00;;
2313;SDS011;42279;51.388;7.000;2023-07-24T05:45:10;6.53;;;6.03;;
2313;SDS011;42279;51.388;7.000;2023-07-24T05:47:36;7.00;;;6.30;;
2313;SDS011;42279;51.388;7.000;2023-07-24T05:50:02;7.53;;;6.30;;
2313;SDS011;42279;51.388;7.000;2023-07-24T05:52:28;7.40;;;5.93;;
2313;SDS011;42279;51.388;7.000;2023-07-24T05:54:54;10.33;;;6.30;;
2313;SDS011;42279;51.388;7.000;2023-07-24T05:57:20;6.60;;;6.10;;
2313;SDS011;42279;51.388;7.000;2023-07-24T05:59:46;7.60;;;6.53;;
2313;SDS011;42279;51.388;7.000;2023-07-24T06:02:12;7.90;;;7.13;;
2313;SDS011;42279;51.388;7.000;2023-07-24T06:04:38;6.43;;;5.63;;
2313;SDS011;42279;51.388;7.000;2023-07-24T06:07:07;7.03;;;6.20;;
2313;SDS011;42279;51.388;7.000;2023-07-24T06:09:33;6.83;;;6.23;;
2313;SDS011;42279;51.388;7.000;2023-07-24T06:12:00;6.53;;;6.13;;
2313;SDS011;42279;51.388;7.000;2023-07-24T06:14:26;6.47;;;5.97;;
2313;SDS011;42279;51.388;7.000;2023-07-24T06:16:52;6.60;;;6.20;;
2313;SDS011;42279;51.388;7.000;2023-07-24T06:19:18;6.83;;;6.23;;
2313;SDS011;42279;51.388;7.000;2023-07-24T06:21:44;9.53;;;6.93;;
2313;SDS011;42279;51.388;7.000;2023-07-24T06:24:10;6.97;;;6.10;;
2313;SDS011;42279;51.388;7.000;2023-07-24T06:26:37;7.30;;;6.60;;
2313;SDS011;42279;51.388;7.000;2023-07-24T06:29:03;6.90;;;6.50;;
2313;SDS011;42279;51.388;7.000;2023-07-24T06:31:29;5.90;;;5.50;;
2313;SDS011;42279;51.388;7.000;2023-07-24T06:33:55;6.10;;;5.70;;
2313;SDS011;42279;51.388;7.000;2023-07-24T06:36:21;5.97;;;5.37;;
2313;SDS011;42279;51.388;7.000;2023-07-24T06:38:47;6.73;;;6.20;;
2313;SDS011;42279;51.388;7.000;2023-07-24T06:41:16;6.67;;;6.07;;
2313;SDS011;42279;51.388;7.000;2023-07-24T06:43:42;6.20;;;5.87;;
2313;SDS011;42279;51.388;7.000;2023-07-24T06:46:08;5.40;;;5.10;;
2313;SDS011;42279;51.388;7.000;2023-07-24T06:48:34;5.70;;;5.40;;
2313;SDS011;42279;51.388;7.000;2023-07-24T06:51:03;6.57;;;6.17;;
2313;SDS011;42279;51.388;7.000;2023-07-24T06:53:29;5.40;;;5.20;;
2313;SDS011;42279;51.388;7.000;2023-07-24T06:55:55;8.40;;;7.77;;
2313;SDS011;42279;51.388;7.000;2023-07-24T06:58:21;5.57;;;5.27;;
2313;SDS011;42279;51.388;7.000;2023-07-24T07:00:50;4.97;;;4.23;;
2313;SDS011;42279;51.388;7.000;2023-07-24T07:03:16;5.60;;;5.37;;
2313;SDS011;42279;51.388;7.000;2023-07-24T07:05:42;5.27;;;5.07;;
2313;SDS011;42279;51.388;7.000;2023-07-24T07:08:08;5.23;;;5.03;;
2313;SDS011;42279;51.388;7.000;2023-07-24T07:10:34;4.30;;;4.10;;
2313;SDS011;42279;51.388;7.000;2023-07-24T07:13:00;5.80;;;5.40;;
2313;SDS011;42279;51.388;7.000;2023-07-24T07:15:26;4.90;;;4.60;;
2313;SDS011;42279;51.388;7.000;2023-07-24T07:17:52;4.80;;;4.60;;
2313;SDS011;42279;51.388;7.000;2023-07-24T07:20:18;4.63;;;4.43;;
2313;SDS011;42279;51.388;7.000;2023-07-24T07:22:44;5.50;;;5.07;;
2313;SDS011;42279;51.388;7.000;2023-07-24T07:25:10;5.10;;;4.80;;
2313;SDS011;42279;51.388;7.000;2023-07-24T07:27:36;4.57;;;4.33;;
2313;SDS011;42279;51.388;7.000;2023-07-24T07:30:02;4.63;;;4.43;;
2313;SDS011;42279;51.388;7.000;2023-07-24T07:32:32;5.53;;;5.10;;
2313;SDS011;42279;51.388;7.000;2023-07-24T07:34:58;4.30;;;4.10;;
2313;SDS011;42279;51.388;7.000;2023-07-24T07:37:24;4.80;;;4.60;;
2313;SDS011;42279;51.388;7.000;2023-07-24T07:39:50;4.97;;;4.37;;
2313;SDS011;42279;51.388;7.000;2023-07-24T07:42:16;4.60;;;4.30;;
2313;SDS011;42279;51.388;7.000;2023-07-24T07:44:42;4.83;;;4.70;;
2313;SDS011;42279;51.388;7.000;2023-07-24T07:47:08;5.53;;;5.13;;
2313;SDS011;42279;51.388;7.000;2023-07-24T07:49:34;4.47;;;4.37;;
2313;SDS011;42279;51.388;7.000;2023-07-24T07:52:00;5.50;;;5.20;;
2313;SDS011;42279;51.388;7.000;2023-07-24T07:54:26;4.07;;;3.87;;
2313;SDS011;42279;51.388;7.000;2023-07-24T07:56:52;4.60;;;4.43;;
2313;SDS011;42279;51.388;7.000;2023-07-24T07:59:18;4.80;;;4.50;;
2313;SDS011;42279;51.388;7.000;2023-07-24T08:01:44;3.73;;;3.60;;
2313;SDS011;42279;51.388;7.000;2023-07-24T08:04:11;4.73;;;4.53;;
2313;SDS011;42279;51.388;7.000;2023-07-24T08:06:37;3.43;;;3.33;;
2313;SDS011;42279;51.388;7.000;2023-07-24T08:09:03;4.33;;;4.10;;
2313;SDS011;42279;51.388;7.000;2023-07-24T08:11:29;3.40;;;3.30;;
2313;SDS011;42279;51.388;7.000;2023-07-24T08:13:55;4.13;;;3.97;;
2313;SDS011;42279;51.388;7.000;2023-07-24T08:16:21;3.73;;;3.53;;
2313;SDS011;42279;51.388;7.000;2023-07-24T08:18:47;4.27;;;4.07;;
2313;SDS011;42279;51.388;7.000;2023-07-24T08:21:14;3.57;;;3.57;;
2313;SDS011;42279;51.388;7.000;2023-07-24T08:23:40;4.10;;;3.83;;
2313;SDS011;42279;51.388;7.000;2023-07-24T08:26:06;4.77;;;4.33;;
2313;SDS011;42279;51.388;7.000;2023-07-24T08:28:32;3.77;;;3.57;;
2313;SDS011;42279;51.388;7.000;2023-07-24T08:31:00;4.90;;;4.10;;
2313;SDS011;42279;51.388;7.000;2023-07-24T08:33:27;3.60;;;3.60;;
2313;SDS011;42279;51.388;7.000;2023-07-24T08:35:58;4.93;;;4.53;;
2313;SDS011;42279;51.388;7.000;2023-07-24T08:38:24;4.33;;;4.03;;
2313;SDS011;42279;51.388;7.000;2023-07-24T08:40:59;4.87;;;4.53;;
2313;SDS011;42279;51.388;7.000;2023-07-24T08:43:25;4.80;;;4.47;;
2313;SDS011;42279;51.388;7.000;2023-07-24T08:45:51;4.40;;;4.30;;
2313;SDS011;42279;51.388;7.000;2023-07-24T08:48:17;5.13;;;4.70;;
2313;SDS011;42279;51.388;7.000;2023-07-24T08:50:44;5.10;;;4.90;;
2313;SDS011;42279;51.388;7.000;2023-07-24T08:53:11;5.93;;;5.13;;
2313;SDS011;42279;51.388;7.000;2023-07-24T08:55:38;5.43;;;4.90;;
2313;SDS011;42279;51.388;7.000;2023-07-24T08:58:04;4.27;;;4.17;;
2313;SDS011;42279;51.388;7.000;2023-07-24T09:00:32;4.77;;;3.87;;
2313;SDS011;42279;51.388;7.000;2023-07-24T09:02:58;3.53;;;3.43;;
2313;SDS011;42279;51.388;7.000;2023-07-24T09:05:24;3.93;;;3.83;;
2313;SDS011;42279;51.388;7.000;2023-07-24T09:07:50;3.60;;;3.50;;
2313;SDS011;42279;51.388;7.000;2023-07-24T09:10:16;4.33;;;4.13;;
2313;SDS011;42279;51.388;7.000;2023-07-24T09:12:42;4.90;;;4.70;;
2313;SDS011;42279;51.388;7.000;2023-07-24T09:15:08;4.20;;;4.00;;
2313;SDS011;42279;51.388;7.000;2023-07-24T09:17:34;4.10;;;3.90;;
2313;SDS011;42279;51.388;7.000;2023-07-24T09:20:00;8.47;;;4.13;;
2313;SDS011;42279;51.388;7.000;2023-07-24T09:22:27;4.30;;;4.10;;
2313;SDS011;42279;51.388;7.000;2023-07-24T09:24:54;4.47;;;4.27;;
2313;SDS011;42279;51.388;7.000;2023-07-24T09:27:23;4.67;;;4.37;;
2313;SDS011;42279;51.388;7.000;2023-07-24T09:29:50;4.47;;;4.37;;
2313;SDS011;42279;51.388;7.000;2023-07-24T09:32:22;4.13;;;4.03;;
2313;SDS011;42279;51.388;7.000;2023-07-24T09:34:49;4.20;;;4.00;;
2313;SDS011;42279;51.388;7.000;2023-07-24T09:37:25;4.17;;;3.83;;
2313;SDS011;42279;51.388;7.000;2023-07-24T09:39:51;4.83;;;4.70;;
2313;SDS011;42279;51.388;7.000;2023-07-24T09:42:17;4.40;;;4.13;;
2313;SDS011;42279;51.388;7.000;2023-07-24T09:44:43;3.90;;;3.60;;
2313;SDS011;42279;51.388;7.000;2023-07-24T09:47:09;3.67;;;3.33;;
2313;SDS011;42279;51.388;7.000;2023-07-24T09:49:35;4.03;;;3.93;;
2313;SDS011;42279;51.388;7.000;2023-07-24T09:52:02;3.63;;;3.53;;
2313;SDS011;42279;51.388;7.000;2023-07-24T09:54:30;3.87;;;3.77;;
2313;SDS011;42279;51.388;7.000;2023-07-24T09:56:58;3.30;;;3.27;;
2313;SDS011;42279;51.388;7.000;2023-07-24T09:59:25;3.43;;;3.30;;
2313;SDS011;42279;51.388;7.000;2023-07-24T10:01:55;4.03;;;3.67;;
2313;SDS011;42279;51.388;7.000;2023-07-24T10:04:23;4.00;;;3.70;;
2313;SDS011;42279;51.388;7.000;2023-07-24T10:06:50;3.10;;;3.10;;
2313;SDS011;42279;51.388;7.000;2023-07-24T10:09:17;3.40;;;3.20;;
2313;SDS011;42279;51.388;7.000;2023-07-24T10:11:44;3.37;;;3.27;;
2313;SDS011;42279;51.388;7.000;2023-07-24T10:14:11;4.10;;;4.00;;
2313;SDS011;42279;51.388;7.000;2023-07-24T10:16:37;4.43;;;4.13;;
2313;SDS011;42279;51.388;7.000;2023-07-24T10:19:12;3.90;;;3.80;;
2313;SDS011;42279;51.388;7.000;2023-07-24T10:21:38;6.30;;;3.80;;
2313;SDS011;42279;51.388;7.000;2023-07-24T10:24:10;3.97;;;3.77;;
2313;SDS011;42279;51.388;7.000;2023-07-24T10:26:36;6.37;;;5.97;;
2313;SDS011;42279;51.388;7.000;2023-07-24T10:29:02;3.83;;;3.73;;
2313;SDS011;42279;51.388;7.000;2023-07-24T10:31:28;3.83;;;3.60;;
2313;SDS011;42279;51.388;7.000;2023-07-24T10:34:03;3.67;;;3.47;;
2313;SDS011;42279;51.388;7.000;2023-07-24T10:36:32;4.07;;;3.97;;
2313;SDS011;42279;51.388;7.000;2023-07-24T10:38:58;4.20;;;3.97;;
2313;SDS011;42279;51.388;7.000;2023-07-24T10:41:35;3.90;;;3.60;;
2313;SDS011;42279;51.388;7.000;2023-07-24T10:44:02;4.77;;;4.47;;
2313;SDS011;42279;51.388;7.000;2023-07-24T10:46:37;3.43;;;3.33;;
2313;SDS011;42279;51.388;7.000;2023-07-24T10:49:04;4.30;;;4.10;;
2313;SDS011;42279;51.388;7.000;2023-07-24T10:51:30;3.57;;;3.47;;
2313;SDS011;42279;51.388;7.000;2023-07-24T10:54:02;4.57;;;4.20;;
2313;SDS011;42279;51.388;7.000;2023-07-24T10:56:28;4.43;;;4.23;;
2313;SDS011;42279;51.388;7.000;2023-07-24T10:58:54;4.20;;;4.10;;
2313;SDS011;42279;51.388;7.000;2023-07-24T11:01:20;4.73;;;4.50;;
2313;SDS011;42279;51.388;7.000;2023-07-24T11:03:46;4.37;;;4.23;;
2313;SDS011;42279;51.388;7.000;2023-07-24T11:06:18;5.10;;;5.00;;
2313;SDS011;42279;51.388;7.000;2023-07-24T11:08:54;5.20;;;4.97;;
2313;SDS011;42279;51.388;7.000;2023-07-24T11:13:56;4.60;;;4.40;;
2313;SDS011;42279;51.388;7.000;2023-07-24T11:16:22;5.73;;;5.23;;
2313;SDS011;42279;51.388;7.000;2023-07-24T11:18:50;6.73;;;6.27;;
2313;SDS011;42279;51.388;7.000;2023-07-24T11:21:17;5.40;;;5.10;;
2313;SDS011;42279;51.388;7.000;2023-07-24T11:23:47;5.10;;;4.70;;
2313;SDS011;42279;51.388;7.000;2023-07-24T11:26:13;5.80;;;5.50;;
2313;SDS011;42279;51.388;7.000;2023-07-24T11:28:40;5.77;;;5.50;;
2313;SDS011;42279;51.388;7.000;2023-07-24T11:31:06;6.40;;;5.90;;
2313;SDS011;42279;51.388;7.000;2023-07-24T11:33:32;6.80;;;6.40;;
2313;SDS011;42279;51.388;7.000;2023-07-24T11:36:01;6.60;;;6.07;;
2313;SDS011;42279;51.388;7.000;2023-07-24T11:38:29;6.90;;;6.17;;
2313;SDS011;42279;51.388;7.000;2023-07-24T11:40:56;8.70;;;8.17;;
2313;SDS011;42279;51.388;7.000;2023-07-24T11:43:22;6.10;;;5.80;;
2313;SDS011;42279;51.388;7.000;2023-07-24T11:45:49;7.60;;;7.20;;
2313;SDS011;42279;51.388;7.000;2023-07-24T11:48:19;7.97;;;7.37;;
2313;SDS011;42279;51.388;7.000;2023-07-24T11:50:46;6.70;;;6.10;;
2313;SDS011;42279;51.388;7.000;2023-07-24T11:53:26;7.57;;;3.27;;
2313;SDS011;42279;51.388;7.000;2023-07-24T11:55:53;2.17;;;2.00;;
2313;SDS011;42279;51.388;7.000;2023-07-24T11:58:19;5.07;;;2.77;;
2313;SDS011;42279;51.388;7.000;2023-07-24T12:00:46;3.40;;;2.93;;
2313;SDS011;42279;51.388;7.000;2023-07-24T12:03:12;3.53;;;3.10;;
2313;SDS011;42279;51.388;7.000;2023-07-24T12:05:39;4.27;;;3.87;;
2313;SDS011;42279;51.388;7.000;2023-07-24T12:08:05;3.00;;;2.80;;
2313;SDS011;42279;51.388;7.000;2023-07-24T12:10:31;2.70;;;2.60;;
2313;SDS011;42279;51.388;7.000;2023-07-24T12:12:58;2.27;;;2.10;;
2313;SDS011;42279;51.388;7.000;2023-07-24T12:15:27;3.83;;;2.83;;
2313;SDS011;42279;51.388;7.000;2023-07-24T12:17:53;2.67;;;2.57;;
2313;SDS011;42279;51.388;7.000;2023-07-24T12:20:19;2.23;;;2.07;;
2313;SDS011;42279;51.388;7.000;2023-07-24T12:22:45;2.43;;;2.43;;
2313;SDS011;42279;51.388;7.000;2023-07-24T12:25:12;1.30;;;1.30;;
2313;SDS011;42279;51.388;7.000;2023-07-24T12:27:38;1.30;;;1.30;;
2313;SDS011;42279;51.388;7.000;2023-07-24T12:30:06;1.80;;;1.80;;
2313;SDS011;42279;51.388;7.000;2023-07-24T12:32:32;1.40;;;1.40;;
2313;SDS011;42279;51.388;7.000;2023-07-24T12:34:58;1.77;;;1.67;;
2313;SDS011;42279;51.388;7.000;2023-07-24T12:37:24;1.20;;;1.20;;
2313;SDS011;42279;51.388;7.000;2023-07-24T12:39:50;1.60;;;1.50;;
2313;SDS011;42279;51.388;7.000;2023-07-24T12:42:16;1.93;;;1.83;;
2313;SDS011;42279;51.388;7.000;2023-07-24T12:44:43;6.00;;;2.47;;
2313;SDS011;42279;51.388;7.000;2023-07-24T12:47:09;1.93;;;1.93;;
2313;SDS011;42279;51.388;7.000;2023-07-24T12:49:35;1.90;;;1.80;;
2313;SDS011;42279;51.388;7.000;2023-07-24T12:52:02;1.93;;;1.90;;
2313;SDS011;42279;51.388;7.000;2023-07-24T12:54:28;1.53;;;1.43;;
2313;SDS011;42279;51.388;7.000;2023-07-24T12:56:54;1.43;;;1.43;;
2313;SDS011;42279;51.388;7.000;2023-07-24T12:59:20;1.80;;;1.80;;
2313;SDS011;42279;51.388;7.000;2023-07-24T13:01:46;1.50;;;1.47;;
2313;SDS011;42279;51.388;7.000;2023-07-24T13:09:24;1.60;;;1.50;;
2313;SDS011;42279;51.388;7.000;2023-07-24T13:12:10;1.80;;;1.80;;
2313;SDS011;42279;51.388;7.000;2023-07-24T13:14:39;1.40;;;1.33;;
2313;SDS011;42279;51.388;7.000;2023-07-24T13:17:23;1.53;;;1.53;;
2313;SDS011;42279;51.388;7.000;2023-07-24T13:20:00;1.60;;;1.60;;
2313;SDS011;42279;51.388;7.000;2023-07-24T13:22:43;1.90;;;1.90;;
2313;SDS011;42279;51.388;7.000;2023-07-24T13:25:17;1.50;;;1.50;;
2313;SDS011;42279;51.388;7.000;2023-07-24T13:31:11;1.60;;;1.60;;
2313;SDS011;42279;51.388;7.000;2023-07-24T13:33:42;1.70;;;1.70;;
2313;SDS011;42279;51.388;7.000;2023-07-24T13:36:08;2.30;;;2.30;;
2313;SDS011;42279;51.388;7.000;2023-07-24T13:38:34;1.90;;;1.90;;
2313;SDS011;42279;51.388;7.000;2023-07-24T13:41:01;1.60;;;1.60;;
2313;SDS011;42279;51.388;7.000;2023-07-24T13:43:28;2.00;;;2.00;;
2313;SDS011;42279;51.388;7.000;2023-07-24T13:45:54;2.20;;;2.20;;
2313;SDS011;42279;51.388;7.000;2023-07-24T13:48:20;2.00;;;1.97;;
2313;SDS011;42279;51.388;7.000;2023-07-24T13:50:46;3.30;;;3.13;;
2313;SDS011;42279;51.388;7.000;2023-07-24T13:53:12;2.70;;;2.60;;
2313;SDS011;42279;51.388;7.000;2023-07-24T13:55:38;2.93;;;2.83;;
2313;SDS011;42279;51.388;7.000;2023-07-24T13:58:04;3.33;;;3.23;;
2313;SDS011;42279;51.388;7.000;2023-07-24T14:00:30;4.60;;;4.40;;
2313;SDS011;42279;51.388;7.000;2023-07-24T14:02:56;5.77;;;5.60;;
2313;SDS011;42279;51.388;7.000;2023-07-24T14:05:25;6.40;;;6.20;;
2313;SDS011;42279;51.388;7.000;2023-07-24T14:07:51;4.77;;;4.67;;
2313;SDS011;42279;51.388;7.000;2023-07-24T14:10:17;4.23;;;3.93;;
2313;SDS011;42279;51.388;7.000;2023-07-24T14:12:43;3.20;;;3.10;;
2313;SDS011;42279;51.388;7.000;2023-07-24T14:15:09;2.80;;;2.80;;
2313;SDS011;42279;51.388;7.000;2023-07-24T14:17:35;3.47;;;3.33;;
2313;SDS011;42279;51.388;7.000;2023-07-24T14:20:02;3.97;;;3.77;;
2313;SDS011;42279;51.388;7.000;2023-07-24T14:22:28;3.63;;;3.43;;
2313;SDS011;42279;51.388;7.000;2023-07-24T14:24:54;3.17;;;3.17;;
2313;SDS011;42279;51.388;7.000;2023-07-24T14:27:20;5.33;;;5.23;;
2313;SDS011;42279;51.388;7.000;2023-07-24T14:29:45;2.60;;;2.60;;
2313;SDS011;42279;51.388;7.000;2023-07-24T14:32:14;2.93;;;2.60;;
2313;SDS011;42279;51.388;7.000;2023-07-24T14:34:40;2.53;;;2.53;;
2313;SDS011;42279;51.388;7.000;2023-07-24T14:37:06;2.67;;;2.67;;
2313;SDS011;42279;51.388;7.000;2023-07-24T14:39:33;3.03;;;3.03;;
2313;SDS011;42279;51.388;7.000;2023-07-24T14:41:59;2.63;;;2.57;;
2313;SDS011;42279;51.388;7.000;2023-07-24T14:44:25;2.50;;;2.40;;
2313;SDS011;42279;51.388;7.000;2023-07-24T14:46:51;3.10;;;3.00;;
2313;SDS011;42279;51.388;7.000;2023-07-24T14:49:17;2.70;;;2.60;;
2313;SDS011;42279;51.388;7.000;2023-07-24T14:51:43;3.50;;;3.40;;
2313;SDS011;42279;51.388;7.000;2023-07-24T14:54:09;3.57;;;3.47;;
2313;SDS011;42279;51.388;7.000;2023-07-24T14:56:35;4.10;;;3.90;;
2313;SDS011;42279;51.388;7.000;2023-07-24T14:59:01;3.63;;;3.53;;
2313;SDS011;42279;51.388;7.000;2023-07-24T15:01:27;4.37;;;2.77;;
2313;SDS011;42279;51.388;7.000;2023-07-24T15:03:53;9.93;;;3.17;;
2313;SDS011;42279;51.388;7.000;2023-07-24T15:06:19;3.87;;;3.67;;
2313;SDS011;42279;51.388;7.000;2023-07-24T15:08:45;3.63;;;3.43;;
2313;SDS011;42279;51.388;7.000;2023-07-24T15:11:11;3.63;;;3.37;;